If you wish to contribute or participate in the discussions about articles you are invited to join SKYbrary as a registered user

 Actions

Pichoy Airport

From SKYbrary Wiki

SCVD
Airport
ICAO: SCVD – IATA: ZAL
Summary
Name Pichoy Airport
Region South America and Caribbean
Territory Chile CL.gif
Location Valdivia, Los Rios
Serving Valdivia
Elevation 17.983 m
59 ft
59 ft17.983 m
Type medium airport
Coordinates 39° 38' 59.84" S, 73° 5' 10.00" W
Runways
Designator Length Width Surface ROPS
17/35 2094 m6,870.079 ft
45 m147.638 ft
ASP /


METAR
Observation SCVD 150400Z AUTO 10005KT CAVOK 13/03 Q1018
Station Valdivia
Date/Time 15 October 2019 04:00:00
Wind direction 100°
Wind speed 05 kts
Lowest cloud amount clouds and visibility OK
Temperature 13°C
Dew point 3°C
Humidity 50%
QNH 1018 hPa
Weather condition n/a

Airport 24 km12.959 nm
24,000 m
78,740.158 ft
north-northeast of Valdivia, Los Lagos, Chile.

Climatology

Temperate oceanic climate (Köppen climate classification Cfb)

Maps

Terrain

Loading map...

Airport Layout

Loading map...


Accidents & Serious Incidents at or in vicinity of SCVD

None on SKYbrary